sensor_id;sensor_type;location;lat;lon;timestamp;temperature;humidity
6843;DHT22;3460;52.028;8.916;2023-11-22T03:36:45;0.20;99.90
6843;DHT22;3460;52.028;8.916;2023-11-22T03:39:11;0.30;99.90
6843;DHT22;3460;52.028;8.916;2023-11-22T03:41:40;0.20;99.90
6843;DHT22;3460;52.028;8.916;2023-11-22T03:44:07;0.30;99.90
6843;DHT22;3460;52.028;8.916;2023-11-22T03:46:34;0.30;99.90
6843;DHT22;3460;52.028;8.916;2023-11-22T03:49:02;0.30;99.90
6843;DHT22;3460;52.028;8.916;2023-11-22T03:51:29;0.20;99.90
6843;DHT22;3460;52.028;8.916;2023-11-22T03:53:57;0.20;99.90
6843;DHT22;3460;52.028;8.916;2023-11-22T03:56:24;0.20;99.90
6843;DHT22;3460;52.028;8.916;2023-11-22T03:58:51;0.10;99.90
6843;DHT22;3460;52.028;8.916;2023-11-22T04:01:18;0.00;99.90
6843;DHT22;3460;52.028;8.916;2023-11-22T04:03:46;0.00;99.90
6843;DHT22;3460;52.028;8.916;2023-11-22T04:06:13;0.00;99.90
6843;DHT22;3460;52.028;8.916;2023-11-22T04:08:41;0.00;99.90
6843;DHT22;3460;52.028;8.916;2023-11-22T04:11:10;0.00;99.90
6843;DHT22;3460;52.028;8.916;2023-11-22T04:13:37;-0.10;99.90
6843;DHT22;3460;52.028;8.916;2023-11-22T04:16:05;-0.10;99.90
6843;DHT22;3460;52.028;8.916;2023-11-22T04:18:34;-0.10;99.90
6843;DHT22;3460;52.028;8.916;2023-11-22T04:21:02;-0.10;99.90
6843;DHT22;3460;52.028;8.916;2023-11-22T04:23:30;-0.10;99.90
6843;DHT22;3460;52.028;8.916;2023-11-22T04:25:57;-0.10;99.90
6843;DHT22;3460;52.028;8.916;2023-11-22T04:28:26;-0.10;99.90
6843;DHT22;3460;52.028;8.916;2023-11-22T04:30:53;-0.20;99.90
6843;DHT22;3460;52.028;8.916;2023-11-22T04:33:20;-0.20;99.90
6843;DHT22;3460;52.028;8.916;2023-11-22T04:35:47;-0.20;99.90
6843;DHT22;3460;52.028;8.916;2023-11-22T04:38:14;-0.20;99.90
6843;DHT22;3460;52.028;8.916;2023-11-22T04:40:41;-0.20;99.90
6843;DHT22;3460;52.028;8.916;2023-11-22T04:43:08;-0.30;99.90
6843;DHT22;3460;52.028;8.916;2023-11-22T04:45:37;-0.30;99.90
6843;DHT22;3460;52.028;8.916;2023-11-22T04:48:04;-0.20;99.90
6843;DHT22;3460;52.028;8.916;2023-11-22T04:50:32;-0.20;99.90
6843;DHT22;3460;52.028;8.916;2023-11-22T04:52:59;-0.20;99.90
6843;DHT22;3460;52.028;8.916;2023-11-22T04:55:27;-0.30;99.90
6843;DHT22;3460;52.028;8.916;2023-11-22T04:57:54;-0.30;99.90
6843;DHT22;3460;52.028;8.916;2023-11-22T05:00:21;-0.30;99.90
6843;DHT22;3460;52.028;8.916;2023-11-22T05:02:50;-0.30;99.90
6843;DHT22;3460;52.028;8.916;2023-11-22T05:05:17;-0.40;99.90
6843;DHT22;3460;52.028;8.916;2023-11-22T05:07:43;-0.40;99.90
6843;DHT22;3460;52.028;8.916;2023-11-22T05:10:11;-0.40;99.90
6843;DHT22;3460;52.028;8.916;2023-11-22T05:12:38;-0.40;99.90
6843;DHT22;3460;52.028;8.916;2023-11-22T05:15:06;-0.40;99.90
6843;DHT22;3460;52.028;8.916;2023-11-22T05:17:34;-0.30;99.90
6843;DHT22;3460;52.028;8.916;2023-11-22T05:20:02;-0.30;99.90
6843;DHT22;3460;52.028;8.916;2023-11-22T05:22:34;-0.30;99.90
6843;DHT22;3460;52.028;8.916;2023-11-22T05:25:00;-0.30;99.90
6843;DHT22;3460;52.028;8.916;2023-11-22T05:27:28;-0.30;99.90
6843;DHT22;3460;52.028;8.916;2023-11-22T05:29:57;-0.30;99.90
6843;DHT22;3460;52.028;8.916;2023-11-22T05:32:24;-0.40;99.90
6843;DHT22;3460;52.028;8.916;2023-11-22T05:34:50;-0.40;99.90
6843;DHT22;3460;52.028;8.916;2023-11-22T05:37:19;-0.40;99.90
6843;DHT22;3460;52.028;8.916;2023-11-22T05:39:46;-0.40;99.90
6843;DHT22;3460;52.028;8.916;2023-11-22T05:42:13;-0.40;99.90
6843;DHT22;3460;52.028;8.916;2023-11-22T05:44:40;-0.30;99.90
6843;DHT22;3460;52.028;8.916;2023-11-22T05:47:07;-0.40;99.90
6843;DHT22;3460;52.028;8.916;2023-11-22T05:49:34;-0.50;99.90
6843;DHT22;3460;52.028;8.916;2023-11-22T05:52:00;-0.50;99.90
6843;DHT22;3460;52.028;8.916;2023-11-22T05:54:29;-0.50;99.90
6843;DHT22;3460;52.028;8.916;2023-11-22T05:56:57;-0.50;99.90
6843;DHT22;3460;52.028;8.916;2023-11-22T05:59:24;-0.50;99.90
6843;DHT22;3460;52.028;8.916;2023-11-22T06:01:50;-0.60;99.90
6843;DHT22;3460;52.028;8.916;2023-11-22T06:04:17;-0.50;99.90
6843;DHT22;3460;52.028;8.916;2023-11-22T06:06:44;-0.50;99.90
6843;DHT22;3460;52.028;8.916;2023-11-22T06:09:11;-0.50;99.90
6843;DHT22;3460;52.028;8.916;2023-11-22T06:11:41;-0.50;99.90
6843;DHT22;3460;52.028;8.916;2023-11-22T06:14:08;-0.50;99.90
6843;DHT22;3460;52.028;8.916;2023-11-22T06:16:34;-0.60;99.90
6843;DHT22;3460;52.028;8.916;2023-11-22T06:19:01;-0.60;99.90
6843;DHT22;3460;52.028;8.916;2023-11-22T06:21:28;-0.60;99.90
6843;DHT22;3460;52.028;8.916;2023-11-22T06:23:55;-0.70;99.90
6843;DHT22;3460;52.028;8.916;2023-11-22T06:26:23;-0.70;99.90
6843;DHT22;3460;52.028;8.916;2023-11-22T06:28:52;-0.70;99.90
6843;DHT22;3460;52.028;8.916;2023-11-22T06:31:19;-0.70;99.90
6843;DHT22;3460;52.028;8.916;2023-11-22T06:33:46;-0.70;99.90
6843;DHT22;3460;52.028;8.916;2023-11-22T06:36:12;-0.70;99.90
6843;DHT22;3460;52.028;8.916;2023-11-22T06:38:40;-0.70;99.90
6843;DHT22;3460;52.028;8.916;2023-11-22T06:41:07;-0.60;99.90
6843;DHT22;3460;52.028;8.916;2023-11-22T06:43:33;-0.60;99.90
6843;DHT22;3460;52.028;8.916;2023-11-22T06:46:02;-0.60;99.90
6843;DHT22;3460;52.028;8.916;2023-11-22T06:48:31;-0.70;99.90
6843;DHT22;3460;52.028;8.916;2023-11-22T06:50:59;-0.70;99.90
6843;DHT22;3460;52.028;8.916;2023-11-22T06:53:26;-0.60;99.90
6843;DHT22;3460;52.028;8.916;2023-11-22T06:55:53;-0.70;99.90
6843;DHT22;3460;52.028;8.916;2023-11-22T06:58:20;-0.70;99.90
6843;DHT22;3460;52.028;8.916;2023-11-22T07:00:46;-0.70;99.90
6843;DHT22;3460;52.028;8.916;2023-11-22T07:03:15;-0.80;99.90
6843;DHT22;3460;52.028;8.916;2023-11-22T07:05:42;-0.80;99.90
6843;DHT22;3460;52.028;8.916;2023-11-22T07:08:09;-0.80;99.90
6843;DHT22;3460;52.028;8.916;2023-11-22T07:10:36;-0.80;99.90
6843;DHT22;3460;52.028;8.916;2023-11-22T07:13:03;-0.80;99.90
6843;DHT22;3460;52.028;8.916;2023-11-22T07:15:30;-0.70;99.90
6843;DHT22;3460;52.028;8.916;2023-11-22T07:17:57;-0.70;99.90
6843;DHT22;3460;52.028;8.916;2023-11-22T07:20:25;-0.70;99.90
6843;DHT22;3460;52.028;8.916;2023-11-22T07:22:52;-0.70;99.90
6843;DHT22;3460;52.028;8.916;2023-11-22T07:25:23;-0.70;99.90
6843;DHT22;3460;52.028;8.916;2023-11-22T07:27:50;-0.60;99.90
6843;DHT22;3460;52.028;8.916;2023-11-22T07:30:18;-0.60;99.90
6843;DHT22;3460;52.028;8.916;2023-11-22T07:32:45;-0.60;99.90
6843;DHT22;3460;52.028;8.916;2023-11-22T07:35:12;-0.60;99.90
6843;DHT22;3460;52.028;8.916;2023-11-22T07:37:40;-0.50;99.90
6843;DHT22;3460;52.028;8.916;2023-11-22T07:46:06;-0.40;99.90
6843;DHT22;3460;52.028;8.916;2023-11-22T07:48:36;-0.40;99.90
6843;DHT22;3460;52.028;8.916;2023-11-22T07:51:03;-0.30;99.90
6843;DHT22;3460;52.028;8.916;2023-11-22T07:53:32;-0.30;99.90
6843;DHT22;3460;52.028;8.916;2023-11-22T07:56:00;-0.30;99.90
6843;DHT22;3460;52.028;8.916;2023-11-22T07:58:29;-0.20;99.90
6843;DHT22;3460;52.028;8.916;2023-11-22T08:00:57;-0.20;99.90
6843;DHT22;3460;52.028;8.916;2023-11-22T08:03:24;-0.10;99.90
6843;DHT22;3460;52.028;8.916;2023-11-22T08:05:51;-0.10;99.90
6843;DHT22;3460;52.028;8.916;2023-11-22T08:08:19;0.00;99.90
6843;DHT22;3460;52.028;8.916;2023-11-22T08:10:48;0.00;99.90
6843;DHT22;3460;52.028;8.916;2023-11-22T08:13:17;0.00;99.90
6843;DHT22;3460;52.028;8.916;2023-11-22T08:15:45;0.10;99.90
6843;DHT22;3460;52.028;8.916;2023-11-22T08:18:12;0.30;99.90
6843;DHT22;3460;52.028;8.916;2023-11-22T08:20:41;0.40;99.90
6843;DHT22;3460;52.028;8.916;2023-11-22T08:23:08;0.40;99.90
6843;DHT22;3460;52.028;8.916;2023-11-22T08:25:36;0.50;99.90
6843;DHT22;3460;52.028;8.916;2023-11-22T08:28:05;0.50;99.90
6843;DHT22;3460;52.028;8.916;2023-11-22T08:30:33;0.60;99.90
6843;DHT22;3460;52.028;8.916;2023-11-22T08:33:01;0.60;99.90
6843;DHT22;3460;52.028;8.916;2023-11-22T08:35:28;0.70;99.90
6843;DHT22;3460;52.028;8.916;2023-11-22T08:37:55;0.70;99.90
6843;DHT22;3460;52.028;8.916;2023-11-22T08:40:23;0.80;99.90
6843;DHT22;3460;52.028;8.916;2023-11-22T08:42:51;0.90;99.90
6843;DHT22;3460;52.028;8.916;2023-11-22T08:45:19;1.00;99.90
6843;DHT22;3460;52.028;8.916;2023-11-22T08:47:46;1.00;99.90
6843;DHT22;3460;52.028;8.916;2023-11-22T08:50:15;1.10;99.90
6843;DHT22;3460;52.028;8.916;2023-11-22T08:52:42;1.20;99.90
6843;DHT22;3460;52.028;8.916;2023-11-22T08:55:10;1.20;99.90
6843;DHT22;3460;52.028;8.916;2023-11-22T08:57:38;1.30;99.90
6843;DHT22;3460;52.028;8.916;2023-11-22T09:00:07;1.30;99.90
6843;DHT22;3460;52.028;8.916;2023-11-22T09:02:35;1.40;99.90
6843;DHT22;3460;52.028;8.916;2023-11-22T09:05:02;1.40;99.90
6843;DHT22;3460;52.028;8.916;2023-11-22T09:07:32;1.50;99.90
6843;DHT22;3460;52.028;8.916;2023-11-22T09:10:00;1.60;99.90
6843;DHT22;3460;52.028;8.916;2023-11-22T09:12:26;1.70;99.90
6843;DHT22;3460;52.028;8.916;2023-11-22T09:14:53;1.70;99.90
6843;DHT22;3460;52.028;8.916;2023-11-22T09:17:20;1.70;99.90
6843;DHT22;3460;52.028;8.916;2023-11-22T09:19:48;1.80;99.90
6843;DHT22;3460;52.028;8.916;2023-11-22T09:22:15;1.80;99.90
6843;DHT22;3460;52.028;8.916;2023-11-22T09:24:43;1.80;99.90
6843;DHT22;3460;52.028;8.916;2023-11-22T09:27:10;1.90;99.90
6843;DHT22;3460;52.028;8.916;2023-11-22T09:29:40;1.90;99.90
6843;DHT22;3460;52.028;8.916;2023-11-22T09:32:07;2.00;99.90
6843;DHT22;3460;52.028;8.916;2023-11-22T09:34:36;1.90;99.90
6843;DHT22;3460;52.028;8.916;2023-11-22T09:37:04;1.90;99.90
6843;DHT22;3460;52.028;8.916;2023-11-22T09:39:31;2.00;99.90
6843;DHT22;3460;52.028;8.916;2023-11-22T09:41:57;2.10;99.90
6843;DHT22;3460;52.028;8.916;2023-11-22T09:44:25;2.10;99.90
6843;DHT22;3460;52.028;8.916;2023-11-22T09:46:53;2.10;99.90
6843;DHT22;3460;52.028;8.916;2023-11-22T09:49:25;2.20;99.90
6843;DHT22;3460;52.028;8.916;2023-11-22T09:51:54;2.30;99.90
6843;DHT22;3460;52.028;8.916;2023-11-22T09:54:25;2.30;99.90
6843;DHT22;3460;52.028;8.916;2023-11-22T09:56:58;2.30;99.90
6843;DHT22;3460;52.028;8.916;2023-11-22T09:59:27;2.30;99.90
6843;DHT22;3460;52.028;8.916;2023-11-22T10:01:55;2.40;99.90
6843;DHT22;3460;52.028;8.916;2023-11-22T10:04:25;2.40;99.90
6843;DHT22;3460;52.028;8.916;2023-11-22T10:06:55;2.50;99.90
6843;DHT22;3460;52.028;8.916;2023-11-22T10:09:25;2.50;99.90
6843;DHT22;3460;52.028;8.916;2023-11-22T10:11:53;2.50;99.90
6843;DHT22;3460;52.028;8.916;2023-11-22T10:14:23;2.50;99.90
6843;DHT22;3460;52.028;8.916;2023-11-22T10:16:58;2.60;99.90
6843;DHT22;3460;52.028;8.916;2023-11-22T10:19:25;2.70;99.90
6843;DHT22;3460;52.028;8.916;2023-11-22T10:22:03;2.90;99.90
6843;DHT22;3460;52.028;8.916;2023-11-22T10:24:32;2.90;99.90
6843;DHT22;3460;52.028;8.916;2023-11-22T10:26:59;3.00;99.90
6843;DHT22;3460;52.028;8.916;2023-11-22T10:29:26;3.00;99.90
6843;DHT22;3460;52.028;8.916;2023-11-22T10:31:53;3.00;99.90
6843;DHT22;3460;52.028;8.916;2023-11-22T10:34:20;3.00;99.90
6843;DHT22;3460;52.028;8.916;2023-11-22T10:36:48;3.10;99.90
6843;DHT22;3460;52.028;8.916;2023-11-22T10:39:19;3.10;99.90
6843;DHT22;3460;52.028;8.916;2023-11-22T10:41:47;3.10;99.90
6843;DHT22;3460;52.028;8.916;2023-11-22T10:44:19;3.00;99.90
6843;DHT22;3460;52.028;8.916;2023-11-22T10:46:47;3.10;99.90
6843;DHT22;3460;52.028;8.916;2023-11-22T10:49:14;3.10;99.90
6843;DHT22;3460;52.028;8.916;2023-11-22T10:51:41;3.10;99.90
6843;DHT22;3460;52.028;8.916;2023-11-22T10:54:11;3.20;99.90
6843;DHT22;3460;52.028;8.916;2023-11-22T10:56:40;3.10;99.90
6843;DHT22;3460;52.028;8.916;2023-11-22T10:59:13;3.00;87.20
6843;DHT22;3460;52.028;8.916;2023-11-22T11:01:44;3.00;99.90
6843;DHT22;3460;52.028;8.916;2023-11-22T11:04:19;3.10;99.90
6843;DHT22;3460;52.028;8.916;2023-11-22T11:06:51;3.30;1.00
6843;DHT22;3460;52.028;8.916;2023-11-22T11:09:22;3.30;57.10
6843;DHT22;3460;52.028;8.916;2023-11-22T11:11:52;3.30;55.60
6843;DHT22;3460;52.028;8.916;2023-11-22T11:14:20;3.30;1.00
6843;DHT22;3460;52.028;8.916;2023-11-22T11:16:48;3.30;9.10
6843;DHT22;3460;52.028;8.916;2023-11-22T11:19:16;3.30;1.00
6843;DHT22;3460;52.028;8.916;2023-11-22T11:21:44;3.20;1.00
6843;DHT22;3460;52.028;8.916;2023-11-22T11:24:10;3.30;99.90
6843;DHT22;3460;52.028;8.916;2023-11-22T11:26:37;3.20;99.90
6843;DHT22;3460;52.028;8.916;2023-11-22T11:29:04;3.20;39.40
6843;DHT22;3460;52.028;8.916;2023-11-22T11:31:39;3.20;1.00
6843;DHT22;3460;52.028;8.916;2023-11-22T11:34:07;3.20;1.00
6843;DHT22;3460;52.028;8.916;2023-11-22T11:36:37;3.30;1.00
6843;DHT22;3460;52.028;8.916;2023-11-22T11:39:06;3.30;1.00
6843;DHT22;3460;52.028;8.916;2023-11-22T11:41:35;3.40;99.90
6843;DHT22;3460;52.028;8.916;2023-11-22T11:44:03;3.30;99.90
6843;DHT22;3460;52.028;8.916;2023-11-22T11:46:32;3.20;99.90
6843;DHT22;3460;52.028;8.916;2023-11-22T11:49:07;3.40;99.90
6843;DHT22;3460;52.028;8.916;2023-11-22T11:51:34;3.60;14.40
6843;DHT22;3460;52.028;8.916;2023-11-22T11:54:01;3.40;10.90
6843;DHT22;3460;52.028;8.916;2023-11-22T11:56:28;3.30;1.00
6843;DHT22;3460;52.028;8.916;2023-11-22T11:58:57;3.30;1.00
6843;DHT22;3460;52.028;8.916;2023-11-22T12:01:27;3.30;1.00
6843;DHT22;3460;52.028;8.916;2023-11-22T12:03:55;3.30;1.00
6843;DHT22;3460;52.028;8.916;2023-11-22T12:06:23;3.30;1.00
6843;DHT22;3460;52.028;8.916;2023-11-22T12:08:50;3.20;99.90
6843;DHT22;3460;52.028;8.916;2023-11-22T12:11:17;3.30;1.00
6843;DHT22;3460;52.028;8.916;2023-11-22T12:13:44;3.30;99.90
6843;DHT22;3460;52.028;8.916;2023-11-22T12:16:15;3.40;99.90
6843;DHT22;3460;52.028;8.916;2023-11-22T12:18:44;3.50;1.00
6843;DHT22;3460;52.028;8.916;2023-11-22T12:21:12;3.40;1.00
6843;DHT22;3460;52.028;8.916;2023-11-22T12:23:41;3.50;1.00
6843;DHT22;3460;52.028;8.916;2023-11-22T12:26:11;3.40;99.90
6843;DHT22;3460;52.028;8.916;2023-11-22T12:28:39;3.40;99.90
6843;DHT22;3460;52.028;8.916;2023-11-22T12:31:07;3.50;1.00
6843;DHT22;3460;52.028;8.916;2023-11-22T12:33:35;3.40;1.00
6843;DHT22;3460;52.028;8.916;2023-11-22T12:36:02;3.40;1.00
6843;DHT22;3460;52.028;8.916;2023-11-22T12:38:29;3.40;99.90
6843;DHT22;3460;52.028;8.916;2023-11-22T12:40:58;3.50;1.00
6843;DHT22;3460;52.028;8.916;2023-11-22T12:43:28;3.60;1.00
6843;DHT22;3460;52.028;8.916;2023-11-22T12:45:59;3.50;99.90
6843;DHT22;3460;52.028;8.916;2023-11-22T12:48:26;3.50;99.90
6843;DHT22;3460;52.028;8.916;2023-11-22T12:50:56;3.50;1.00
6843;DHT22;3460;52.028;8.916;2023-11-22T12:53:23;3.50;22.50
6843;DHT22;3460;52.028;8.916;2023-11-22T12:55:54;3.60;1.00
6843;DHT22;3460;52.028;8.916;2023-11-22T12:58:23;3.50;1.00
6843;DHT22;3460;52.028;8.916;2023-11-22T13:00:51;3.60;99.90
6843;DHT22;3460;52.028;8.916;2023-11-22T13:03:24;3.50;99.90
6843;DHT22;3460;52.028;8.916;2023-11-22T13:05:51;3.50;99.90
6843;DHT22;3460;52.028;8.916;2023-11-22T13:08:19;3.40;99.90
6843;DHT22;3460;52.028;8.916;2023-11-22T13:10:48;3.40;99.90
6843;DHT22;3460;52.028;8.916;2023-11-22T13:13:19;3.40;99.90
6843;DHT22;3460;52.028;8.916;2023-11-22T13:15:47;3.40;99.90
6843;DHT22;3460;52.028;8.916;2023-11-22T13:18:14;3.40;1.00
6843;DHT22;3460;52.028;8.916;2023-11-22T13:20:42;3.30;99.90
6843;DHT22;3460;52.028;8.916;2023-11-22T13:23:09;3.40;99.90
6843;DHT22;3460;52.028;8.916;2023-11-22T13:25:36;3.40;99.90
6843;DHT22;3460;52.028;8.916;2023-11-22T13:28:03;3.30;99.90
6843;DHT22;3460;52.028;8.916;2023-11-22T13:30:31;3.30;1.00
6843;DHT22;3460;52.028;8.916;2023-11-22T13:32:59;3.40;1.00
6843;DHT22;3460;52.028;8.916;2023-11-22T13:35:27;3.40;99.90
6843;DHT22;3460;52.028;8.916;2023-11-22T13:37:57;3.40;1.00
6843;DHT22;3460;52.028;8.916;2023-11-22T13:40:24;3.40;99.90
6843;DHT22;3460;52.028;8.916;2023-11-22T13:42:55;3.40;1.00
6843;DHT22;3460;52.028;8.916;2023-11-22T13:45:22;3.30;99.90
6843;DHT22;3460;52.028;8.916;2023-11-22T13:47:50;3.30;99.90
6843;DHT22;3460;52.028;8.916;2023-11-22T13:50:20;3.30;1.00
6843;DHT22;3460;52.028;8.916;2023-11-22T13:52:49;3.30;1.00
6843;DHT22;3460;52.028;8.916;2023-11-22T13:55:16;3.30;1.00
6843;DHT22;3460;52.028;8.916;2023-11-22T13:57:48;3.20;99.90
6843;DHT22;3460;52.028;8.916;2023-11-22T14:00:16;3.20;1.00
6843;DHT22;3460;52.028;8.916;2023-11-22T14:02:45;3.20;1.00
6843;DHT22;3460;52.028;8.916;2023-11-22T14:05:12;3.20;99.90
6843;DHT22;3460;52.028;8.916;2023-11-22T14:07:40;3.20;1.00
6843;DHT22;3460;52.028;8.916;2023-11-22T14:10:07;3.20;1.00
6843;DHT22;3460;52.028;8.916;2023-11-22T14:12:36;3.20;1.90
6843;DHT22;3460;52.028;8.916;2023-11-22T14:15:03;3.20;99.90
6843;DHT22;3460;52.028;8.916;2023-11-22T14:17:31;3.20;1.00
6843;DHT22;3460;52.028;8.916;2023-11-22T14:19:58;3.20;1.00
6843;DHT22;3460;52.028;8.916;2023-11-22T14:22:25;3.20;99.90
6843;DHT22;3460;52.028;8.916;2023-11-22T14:24:54;3.20;99.90
6843;DHT22;3460;52.028;8.916;2023-11-22T14:27:22;3.20;99.90
6843;DHT22;3460;52.028;8.916;2023-11-22T14:29:49;3.20;99.90
6843;DHT22;3460;52.028;8.916;2023-11-22T14:32:18;3.20;99.90
6843;DHT22;3460;52.028;8.916;2023-11-22T14:34:45;3.20;99.90
6843;DHT22;3460;52.028;8.916;2023-11-22T14:37:13;3.10;1.00
6843;DHT22;3460;52.028;8.916;2023-11-22T14:39:40;3.10;1.00
6843;DHT22;3460;52.028;8.916;2023-11-22T14:42:09;3.00;1.00
6843;DHT22;3460;52.028;8.916;2023-11-22T14:44:37;3.00;99.90
6843;DHT22;3460;52.028;8.916;2023-11-22T14:47:04;3.10;99.90
6843;DHT22;3460;52.028;8.916;2023-11-22T14:49:38;3.10;99.90
6843;DHT22;3460;52.028;8.916;2023-11-22T14:52:04;3.10;99.90
6843;DHT22;3460;52.028;8.916;2023-11-22T14:54:31;3.10;1.00
6843;DHT22;3460;52.028;8.916;2023-11-22T14:56:58;3.10;1.00
6843;DHT22;3460;52.028;8.916;2023-11-22T14:59:29;3.10;1.00
6843;DHT22;3460;52.028;8.916;2023-11-22T15:01:56;3.10;1.00
6843;DHT22;3460;52.028;8.916;2023-11-22T15:04:23;3.10;99.90
6843;DHT22;3460;52.028;8.916;2023-11-22T15:06:50;3.10;99.90
6843;DHT22;3460;52.028;8.916;2023-11-22T15:09:17;3.10;99.90
6843;DHT22;3460;52.028;8.916;2023-11-22T15:11:44;3.10;1.00
6843;DHT22;3460;52.028;8.916;2023-11-22T15:14:12;3.10;1.00
6843;DHT22;3460;52.028;8.916;2023-11-22T15:16:42;3.20;1.00
6843;DHT22;3460;52.028;8.916;2023-11-22T15:19:10;3.10;1.00
6843;DHT22;3460;52.028;8.916;2023-11-22T15:21:39;3.20;1.00
6843;DHT22;3460;52.028;8.916;2023-11-22T15:24:07;3.10;1.00
6843;DHT22;3460;52.028;8.916;2023-11-22T15:26:34;3.20;1.00
6843;DHT22;3460;52.028;8.916;2023-11-22T15:29:02;3.20;1.00
6843;DHT22;3460;52.028;8.916;2023-11-22T15:31:31;3.20;1.00
6843;DHT22;3460;52.028;8.916;2023-11-22T15:34:00;3.20;1.00
6843;DHT22;3460;52.028;8.916;2023-11-22T15:36:28;3.10;1.00
6843;DHT22;3460;52.028;8.916;2023-11-22T15:38:55;3.20;1.00
6843;DHT22;3460;52.028;8.916;2023-11-22T15:41:21;3.10;38.60
6843;DHT22;3460;52.028;8.916;2023-11-22T15:43:48;3.10;23.90
6843;DHT22;3460;52.028;8.916;2023-11-22T15:46:15;3.10;4.20
6843;DHT22;3460;52.028;8.916;2023-11-22T15:48:44;3.10;1.00
6843;DHT22;3460;52.028;8.916;2023-11-22T15:51:14;3.10;7.80
6843;DHT22;3460;52.028;8.916;2023-11-22T15:53:42;3.00;99.90
6843;DHT22;3460;52.028;8.916;2023-11-22T15:56:08;3.00;36.80
6843;DHT22;3460;52.028;8.916;2023-11-22T15:58:40;3.00;1.00
6843;DHT22;3460;52.028;8.916;2023-11-22T16:01:07;3.10;1.00
6843;DHT22;3460;52.028;8.916;2023-11-22T16:03:35;3.20;1.00
6843;DHT22;3460;52.028;8.916;2023-11-22T16:06:04;3.20;99.90
6843;DHT22;3460;52.028;8.916;2023-11-22T16:08:33;3.20;1.00
6843;DHT22;3460;52.028;8.916;2023-11-22T16:11:00;3.30;99.90
6843;DHT22;3460;52.028;8.916;2023-11-22T16:13:27;3.20;1.00
6843;DHT22;3460;52.028;8.916;2023-11-22T16:15:54;3.10;99.90
6843;DHT22;3460;52.028;8.916;2023-11-22T16:18:34;3.10;1.00
6843;DHT22;3460;52.028;8.916;2023-11-22T16:21:04;3.10;1.00
6843;DHT22;3460;52.028;8.916;2023-11-22T16:23:34;3.10;1.00
6843;DHT22;3460;52.028;8.916;2023-11-22T16:26:01;3.00;1.00
6843;DHT22;3460;52.028;8.916;2023-11-22T16:28:29;3.00;1.00
6843;DHT22;3460;52.028;8.916;2023-11-22T16:30:56;3.10;1.00
6843;DHT22;3460;52.028;8.916;2023-11-22T16:33:24;3.00;1.00
6843;DHT22;3460;52.028;8.916;2023-11-22T16:35:52;3.10;1.00
6843;DHT22;3460;52.028;8.916;2023-11-22T16:38:20;3.10;99.90
6843;DHT22;3460;52.028;8.916;2023-11-22T16:40:50;3.10;1.00
6843;DHT22;3460;52.028;8.916;2023-11-22T16:43:19;3.00;1.00
6843;DHT22;3460;52.028;8.916;2023-11-22T16:45:47;3.00;1.00
6843;DHT22;3460;52.028;8.916;2023-11-22T16:48:15;3.00;1.00
6843;DHT22;3460;52.028;8.916;2023-11-22T16:50:42;3.00;1.00
6843;DHT22;3460;52.028;8.916;2023-11-22T16:53:11;3.10;99.90
6843;DHT22;3460;52.028;8.916;2023-11-22T16:55:40;3.10;99.90
6843;DHT22;3460;52.028;8.916;2023-11-22T16:58:09;3.10;99.90
6843;DHT22;3460;52.028;8.916;2023-11-22T17:00:37;3.10;99.90
6843;DHT22;3460;52.028;8.916;2023-11-22T17:03:04;3.10;99.90
6843;DHT22;3460;52.028;8.916;2023-11-22T17:05:32;3.10;1.00
6843;DHT22;3460;52.028;8.916;2023-11-22T17:07:59;3.10;1.00
6843;DHT22;3460;52.028;8.916;2023-11-22T17:10:26;3.10;1.00
6843;DHT22;3460;52.028;8.916;2023-11-22T17:12:53;3.10;1.00
6843;DHT22;3460;52.028;8.916;2023-11-22T17:15:21;3.10;99.90
6843;DHT22;3460;52.028;8.916;2023-11-22T17:17:48;3.00;1.00
6843;DHT22;3460;52.028;8.916;2023-11-22T17:20:15;3.00;1.00
6843;DHT22;3460;52.028;8.916;2023-11-22T17:22:42;3.10;99.90
6843;DHT22;3460;52.028;8.916;2023-11-22T17:25:09;3.10;99.90
6843;DHT22;3460;52.028;8.916;2023-11-22T17:27:41;3.10;99.90
6843;DHT22;3460;52.028;8.916;2023-11-22T17:30:08;3.20;99.90
6843;DHT22;3460;52.028;8.916;2023-11-22T17:32:37;3.10;99.90
6843;DHT22;3460;52.028;8.916;2023-11-22T17:35:04;3.10;99.90
6843;DHT22;3460;52.028;8.916;2023-11-22T17:37:31;3.10;99.90
6843;DHT22;3460;52.028;8.916;2023-11-22T17:39:58;3.20;99.90
6843;DHT22;3460;52.028;8.916;2023-11-22T17:42:25;3.20;1.00
6843;DHT22;3460;52.028;8.916;2023-11-22T17:44:52;3.10;1.00
6843;DHT22;3460;52.028;8.916;2023-11-22T17:47:19;3.10;1.00
6843;DHT22;3460;52.028;8.916;2023-11-22T17:49:47;3.10;1.00
6843;DHT22;3460;52.028;8.916;2023-11-22T17:52:15;3.00;1.00
6843;DHT22;3460;52.028;8.916;2023-11-22T17:54:42;3.00;1.00
6843;DHT22;3460;52.028;8.916;2023-11-22T17:57:12;2.90;1.00
6843;DHT22;3460;52.028;8.916;2023-11-22T17:59:38;2.80;1.00
6843;DHT22;3460;52.028;8.916;2023-11-22T18:02:05;2.80;1.00
6843;DHT22;3460;52.028;8.916;2023-11-22T18:04:32;2.80;1.00
6843;DHT22;3460;52.028;8.916;2023-11-22T18:07:01;2.80;1.00
6843;DHT22;3460;52.028;8.916;2023-11-22T18:09:28;2.70;1.00
6843;DHT22;3460;52.028;8.916;2023-11-22T18:11:55;2.80;99.90
6843;DHT22;3460;52.028;8.916;2023-11-22T18:14:24;2.80;1.00
6843;DHT22;3460;52.028;8.916;2023-11-22T18:16:51;2.80;99.90
6843;DHT22;3460;52.028;8.916;2023-11-22T18:19:17;2.80;99.90
6843;DHT22;3460;52.028;8.916;2023-11-22T18:21:44;2.80;1.00
6843;DHT22;3460;52.028;8.916;2023-11-22T18:24:12;2.80;72.40
6843;DHT22;3460;52.028;8.916;2023-11-22T18:26:40;2.80;99.90
6843;DHT22;3460;52.028;8.916;2023-11-22T18:29:09;2.80;1.00
6843;DHT22;3460;52.028;8.916;2023-11-22T18:31:37;2.90;78.10
6843;DHT22;3460;52.028;8.916;2023-11-22T18:34:03;2.90;15.50
6843;DHT22;3460;52.028;8.916;2023-11-22T18:36:30;2.90;99.90
6843;DHT22;3460;52.028;8.916;2023-11-22T18:38:58;2.90;1.00
6843;DHT22;3460;52.028;8.916;2023-11-22T18:41:26;2.90;1.00
6843;DHT22;3460;52.028;8.916;2023-11-22T18:43:53;3.00;1.00
6843;DHT22;3460;52.028;8.916;2023-11-22T18:46:20;3.00;1.00
6843;DHT22;3460;52.028;8.916;2023-11-22T18:48:47;3.10;1.00
6843;DHT22;3460;52.028;8.916;2023-11-22T18:51:14;3.10;1.00
6843;DHT22;3460;52.028;8.916;2023-11-22T18:53:40;3.10;1.00
6843;DHT22;3460;52.028;8.916;2023-11-22T18:56:08;3.00;1.00
6843;DHT22;3460;52.028;8.916;2023-11-22T18:58:37;3.10;1.00
6843;DHT22;3460;52.028;8.916;2023-11-22T19:01:04;3.10;1.00
6843;DHT22;3460;52.028;8.916;2023-11-22T19:03:31;3.10;1.00
6843;DHT22;3460;52.028;8.916;2023-11-22T19:05:57;3.10;1.00
6843;DHT22;3460;52.028;8.916;2023-11-22T19:08:25;3.10;16.80
6843;DHT22;3460;52.028;8.916;2023-11-22T19:10:52;3.10;99.90
6843;DHT22;3460;52.028;8.916;2023-11-22T19:13:19;3.10;99.90
6843;DHT22;3460;52.028;8.916;2023-11-22T19:15:48;3.10;99.90
6843;DHT22;3460;52.028;8.916;2023-11-22T19:18:15;3.10;1.00
6843;DHT22;3460;52.028;8.916;2023-11-22T19:20:43;3.10;92.80
6843;DHT22;3460;52.028;8.916;2023-11-22T19:23:10;3.10;1.00
6843;DHT22;3460;52.028;8.916;2023-11-22T19:25:38;3.10;1.00
6843;DHT22;3460;52.028;8.916;2023-11-22T19:28:04;3.10;17.50
6843;DHT22;3460;52.028;8.916;2023-11-22T19:30:34;3.10;96.70
6843;DHT22;3460;52.028;8.916;2023-11-22T19:33:02;3.10;1.00
6843;DHT22;3460;52.028;8.916;2023-11-22T19:35:29;3.20;1.00
6843;DHT22;3460;52.028;8.916;2023-11-22T19:37:56;3.20;1.00
6843;DHT22;3460;52.028;8.916;2023-11-22T19:40:23;3.40;99.90
6843;DHT22;3460;52.028;8.916;2023-11-22T19:42:51;3.40;1.00
6843;DHT22;3460;52.028;8.916;2023-11-22T19:45:18;3.40;1.00
6843;DHT22;3460;52.028;8.916;2023-11-22T19:47:45;3.40;99.90
6843;DHT22;3460;52.028;8.916;2023-11-22T19:50:14;3.40;1.00
6843;DHT22;3460;52.028;8.916;2023-11-22T19:52:41;3.30;1.00
6843;DHT22;3460;52.028;8.916;2023-11-22T19:55:08;3.40;99.90
6843;DHT22;3460;52.028;8.916;2023-11-22T19:57:36;3.50;99.90
6843;DHT22;3460;52.028;8.916;2023-11-22T20:00:04;3.60;99.90
6843;DHT22;3460;52.028;8.916;2023-11-22T20:02:31;3.60;99.90
6843;DHT22;3460;52.028;8.916;2023-11-22T20:04:58;3.60;99.90